Morton S Bouchard Jr — WSE9678 — position and weather

sailwx.info

Track history (hours):
 
Tides and Currents Weather Stations Pressure Air Temp Water Temp Dewpoint Dewpoint Depression Visibility Wind Speed Wind Dir Waves Ship Positions

Morton S Bouchard Jr

Owner: BOUCHARD TRANSPORTATION CO INC, MELVILLE, NY. More information available from US FCC via Universal Licensing System and Coast Guard Vessel Documentation Center.

Last reported at 2015-Mar-04 17:32 UTC. Time now 2015-Mar-04 18:56 UTC.
Position N 41°48' W 071°24'.

Length 33 m; draft 6 m.

Type: Tug. MMSI: 367006550.

Date/timePositionNaut miles runAvg speedWind from/ knotsBaromVisibWave heightAir tempDewpointWater temp
2015-Mar-04 17:32N 41°48' W 071°24'0 0.0
2015-Mar-04 16:05N 41°48' W 071°24'0 0.0
2015-Mar-04 15:32N 41°48' W 071°24'0 0.0
2015-Mar-04 14:33N 41°48' W 071°24'3 2.9
2015-Mar-04 13:30N 41°45' W 071°22'6 6.0
2015-Mar-04 12:33N 41°40' W 071°19'4 3.9
2015-Mar-04 11:33N 41°37' W 071°17'0 0.0
2015-Mar-04 10:33N 41°37' W 071°17'0 0.0
2015-Mar-04 09:33N 41°37' W 071°17'0 0.0
2015-Mar-04 08:33N 41°37' W 071°17'0 0.0
2015-Mar-04 07:33N 41°37' W 071°17'0 0.0
2015-Mar-04 06:33N 41°37' W 071°17'0 0.0
2015-Mar-04 05:33N 41°37' W 071°17'0 0.0
2015-Mar-04 04:30N 41°37' W 071°17'0 0.1
2015-Mar-04 03:33N 41°37' W 071°17'0 0.0
2015-Mar-04 02:34N 41°37' W 071°17'0 0.1
2015-Mar-04 01:33N 41°37' W 071°17'0 0.1
2015-Mar-04 00:33N 41°37' W 071°17'0 0.0
2015-Mar-03 23:34N 41°37' W 071°17'0 0.0
2015-Mar-03 22:33N 41°37' W 071°17'0 0.0
2015-Mar-03 21:33N 41°37' W 071°17'0 0.0
2015-Mar-03 20:33N 41°37' W 071°17'0 0.0
2015-Mar-03 19:33N 41°37' W 071°17'0 0.0
2015-Mar-03 18:34N 41°37' W 071°17'0 0.2
2015-Mar-03 17:33N 41°36' W 071°17'0 0.1
2015-Mar-03 16:31N 41°36' W 071°17'0 0.1
2015-Mar-03 15:33N 41°36' W 071°17'0 0.0
2015-Mar-03 14:33N 41°36' W 071°17'0 0.0
2015-Mar-03 13:33N 41°36' W 071°17'0 0.1
2015-Mar-03 12:33N 41°36' W 071°17'2 1.4
2015-Mar-03 11:07N 41°35' W 071°19'3 5.1
2015-Mar-03 10:34N 41°32' W 071°20'4 3.5
2015-Mar-03 09:33N 41°29' W 071°21'3 2.8
2015-Mar-03 08:34N 41°26' W 071°23'4 3.8
2015-Mar-03 07:33N 41°23' W 071°25'6 6.4
2015-Mar-03 06:34N 41°18' W 071°30'8 7.9
2015-Mar-03 05:33N 41°17' W 071°41'8 7.9
2015-Mar-03 04:33N 41°16' W 071°51'8 8.5
2015-Mar-03 03:33N 41°14' W 072°02'7 7.2
2015-Mar-03 02:33N 41°14' W 072°12'7 6.7
2015-Mar-03 01:33N 41°12' W 072°20'6 5.7
2015-Mar-03 00:34N 41°10' W 072°27'6 5.8
2015-Mar-02 23:33N 41°10' W 072°35'50 2.4
2015-Mar-02 02:15N 40°55' W 073°39'8 7.3
2015-Mar-02 01:13N 40°50' W 073°46'5 5.5
2015-Mar-02 00:22N 40°48' W 073°52'5 5.4
2015-Mar-01 23:29N 40°46' W 073°57'5 5.3
2015-Mar-01 22:33N 40°41' W 074°00'3 2.8
2015-Mar-01 21:33N 40°39' W 074°03'0 0.1
2015-Mar-01 20:33N 40°39' W 074°03'0 0.1
2015-Mar-01 19:33N 40°39' W 074°03'0 0.0
2015-Mar-01 18:33N 40°39' W 074°03'6 5.5
2015-Mar-01 17:33N 40°39' W 074°10'6 5.5
2015-Mar-01 16:32N 40°34' W 074°13'2 1.1
2015-Mar-01 15:05N 40°33' W 074°15'0 0.0
2015-Mar-01 14:15N 40°33' W 074°15'0 0.0
2015-Mar-01 11:33N 40°33' W 074°15'0 0.1
2015-Mar-01 10:22N 40°33' W 074°15'0 0.0
2015-Mar-01 08:33N 40°33' W 074°15'0 0.0
2015-Mar-01 06:18N 40°33' W 074°15'5 1.8
2015-Mar-01 03:33N 40°37' W 074°12'4 4.1
2015-Mar-01 02:33N 40°39' W 074°07'0 0.0
2015-Mar-01 01:34N 40°39' W 074°07'0 0.0
2015-Mar-01 00:33N 40°39' W 074°07'0 0.0
2015-Feb-28 23:33N 40°39' W 074°07'0 0.0
2015-Feb-28 22:34N 40°39' W 074°07'0 0.0
2015-Feb-28 21:33N 40°39' W 074°07'0 0.0
2015-Feb-28 20:30N 40°39' W 074°07'0 0.0
2015-Feb-28 19:33N 40°39' W 074°07'0 0.0
2015-Feb-28 18:31N 40°39' W 074°07'0 0.0
2015-Feb-28 17:31N 40°39' W 074°07'0 0.1
2015-Feb-28 16:33N 40°39' W 074°07'7 6.7
2015-Feb-28 15:31N 40°33' W 074°13'1 1.4
2015-Feb-28 14:33N 40°33' W 074°15'4 4.0
2015-Feb-28 13:32N 40°36' W 074°12'6 6.0
2015-Feb-28 12:33N 40°39' W 074°05'8 7.5
2015-Feb-28 11:33N 40°44' W 073°58'6 5.7
2015-Feb-28 10:33N 40°48' W 073°52'37 7.0
2015-Feb-28 05:17N 41°02' W 073°07'6 8.0
2015-Feb-28 04:33N 41°03' W 072°59'6 5.9
2015-Feb-28 03:33N 41°02' W 073°07'8 7.3
2015-Feb-28 02:31N 41°01' W 073°17'14 6.7
2015-Feb-28 00:28N 41°03' W 072°59'9 9.6
2015-Feb-27 23:33N 41°05' W 072°47'10 9.5
2015-Feb-27 22:34N 41°08' W 072°36'1010.2
2015-Feb-27 21:33N 41°11' W 072°23'1010.3
2015-Feb-27 20:34N 41°14' W 072°10'10 9.6
2015-Feb-27 19:34N 41°14' W 071°57'9 9.4
2015-Feb-27 18:34N 41°16' W 071°44'9 9.3
2015-Feb-27 17:33N 41°18' W 071°32'9 9.3
2015-Feb-27 16:33N 41°18' W 071°20'10 9.7
2015-Feb-27 15:33N 41°22' W 071°08'10 9.9
2015-Feb-27 14:33N 41°28' W 070°57'11 8.9
2015-Feb-27 13:18N 41°34' W 070°45'6 7.9
2015-Feb-27 12:32N 41°40' W 070°41'19 2.1
2015-Feb-27 03:27N 41°55' W 070°26'5 4.0
2015-Feb-27 02:08N 42°01' W 070°25'30 2.6
2015-Feb-26 14:33N 42°24' W 070°51'50 1.3
2015-Feb-24 23:04N 41°33' W 070°45'3 4.6
2015-Feb-24 22:29N 41°32' W 070°48'10 5.4
2015-Feb-24 20:33N 41°27' W 071°00'7 6.6
2015-Feb-24 19:33N 41°23' W 071°08'7 7.0
2015-Feb-24 18:33N 41°23' W 071°17'4 4.1
2015-Feb-24 17:33N 41°21' W 071°22'5 5.0
2015-Feb-24 16:34N 41°16' W 071°22'4 3.5
2015-Feb-24 15:33N 41°18' W 071°26'5 4.7
2015-Feb-24 14:34N 41°18' W 071°32'5 4.9
2015-Feb-24 13:33N 41°16' W 071°39'30 5.7
2015-Feb-24 08:22N 41°12' W 072°18'5 5.6
2015-Feb-24 07:33N 41°10' W 072°23'5 4.6
2015-Feb-24 06:32N 41°08' W 072°29'9 4.6
2015-Feb-24 04:33N 41°06' W 072°41'5 4.8
2015-Feb-24 03:34N 41°05' W 072°47'5 5.1
2015-Feb-24 02:34N 41°04' W 072°54'5 5.5
2015-Feb-24 01:34N 41°02' W 073°01'6 6.3
2015-Feb-24 00:33N 41°01' W 073°09'7 7.4
2015-Feb-23 23:33N 41°01' W 073°19'8 7.6
2015-Feb-23 22:33N 40°59' W 073°28'7 7.3
2015-Feb-23 21:33N 40°56' W 073°37'5 3.6
2015-Feb-23 20:10N 40°54' W 073°43'10 5.7
2015-Feb-23 18:29N 40°48' W 073°53'7 7.2
2015-Feb-23 17:33N 40°43' W 073°58'7 7.3
2015-Feb-23 16:33N 40°39' W 074°07'0 0.2
2015-Feb-23 15:33N 40°39' W 074°07'0 0.3
2015-Feb-23 14:33N 40°39' W 074°07'0 0.0
2015-Feb-23 13:33N 40°39' W 074°07'0 0.0
2015-Feb-23 12:33N 40°39' W 074°07'2 1.8
2015-Feb-23 11:33N 40°39' W 074°05'1 1.4
2015-Feb-23 10:33N 40°38' W 074°04'1 1.2
2015-Feb-23 09:34N 40°39' W 074°05'1 1.4
2015-Feb-23 08:33N 40°39' W 074°07'0 0.0
2015-Feb-23 07:33N 40°39' W 074°07'0 0.0
2015-Feb-23 06:33N 40°39' W 074°07'0 0.0
2015-Feb-23 05:33N 40°39' W 074°07'0 0.0
2015-Feb-23 04:33N 40°39' W 074°07'0 0.0
2015-Feb-23 03:33N 40°39' W 074°07'0 0.0
2015-Feb-23 02:33N 40°39' W 074°07'0 0.0
2015-Feb-23 01:34N 40°39' W 074°07'0 0.0
2015-Feb-23 00:32N 40°39' W 074°07'0 0.0
2015-Feb-22 23:32N 40°39' W 074°07'0 0.0
2015-Feb-22 22:16N 40°39' W 074°07'0 0.0
2015-Feb-22 21:27N 40°39' W 074°07'0 0.5
2015-Feb-22 20:32N 40°39' W 074°07'0 0.0
2015-Feb-22 19:34N 40°39' W 074°07'0 0.0
2015-Feb-22 18:31N 40°39' W 074°07'0 0.1
2015-Feb-22 17:34N 40°39' W 074°07'  
Track history (hours):
 
Tides and Currents Weather Stations Pressure Air Temp Water Temp Dewpoint Dewpoint Depression Visibility Wind Speed Wind Dir Waves Ship Positions

Morton S Bouchard Jr

Owner: BOUCHARD TRANSPORTATION CO INC, MELVILLE, NY. More information available from US FCC via Universal Licensing System and Coast Guard Vessel Documentation Center.

Last reported at 2015-Mar-04 17:32 UTC. Time now 2015-Mar-04 18:56 UTC.
Position N 41°48' W 071°24'.

Length 33 m; draft 6 m.

Type: Tug. MMSI: 367006550.

Date/timePositionNaut miles runAvg speedWind from/ knotsBaromVisibWave heightAir tempDewpointWater temp
2015-Mar-04 17:32N 41°48' W 071°24'0 0.0
2015-Mar-04 16:05N 41°48' W 071°24'0 0.0
2015-Mar-04 15:32N 41°48' W 071°24'0 0.0
2015-Mar-04 14:33N 41°48' W 071°24'3 2.9
2015-Mar-04 13:30N 41°45' W 071°22'6 6.0
2015-Mar-04 12:33N 41°40' W 071°19'4 3.9
2015-Mar-04 11:33N 41°37' W 071°17'0 0.0
2015-Mar-04 10:33N 41°37' W 071°17'0 0.0
2015-Mar-04 09:33N 41°37' W 071°17'0 0.0
2015-Mar-04 08:33N 41°37' W 071°17'0 0.0
2015-Mar-04 07:33N 41°37' W 071°17'0 0.0
2015-Mar-04 06:33N 41°37' W 071°17'0 0.0
2015-Mar-04 05:33N 41°37' W 071°17'0 0.0
2015-Mar-04 04:30N 41°37' W 071°17'0 0.1
2015-Mar-04 03:33N 41°37' W 071°17'0 0.0
2015-Mar-04 02:34N 41°37' W 071°17'0 0.1
2015-Mar-04 01:33N 41°37' W 071°17'0 0.1
2015-Mar-04 00:33N 41°37' W 071°17'0 0.0
2015-Mar-03 23:34N 41°37' W 071°17'0 0.0
2015-Mar-03 22:33N 41°37' W 071°17'0 0.0
2015-Mar-03 21:33N 41°37' W 071°17'0 0.0
2015-Mar-03 20:33N 41°37' W 071°17'0 0.0
2015-Mar-03 19:33N 41°37' W 071°17'0 0.0
2015-Mar-03 18:34N 41°37' W 071°17'0 0.2
2015-Mar-03 17:33N 41°36' W 071°17'0 0.1
2015-Mar-03 16:31N 41°36' W 071°17'0 0.1
2015-Mar-03 15:33N 41°36' W 071°17'0 0.0
2015-Mar-03 14:33N 41°36' W 071°17'0 0.0
2015-Mar-03 13:33N 41°36' W 071°17'0 0.1
2015-Mar-03 12:33N 41°36' W 071°17'2 1.4
2015-Mar-03 11:07N 41°35' W 071°19'3 5.1
2015-Mar-03 10:34N 41°32' W 071°20'4 3.5
2015-Mar-03 09:33N 41°29' W 071°21'3 2.8
2015-Mar-03 08:34N 41°26' W 071°23'4 3.8
2015-Mar-03 07:33N 41°23' W 071°25'6 6.4
2015-Mar-03 06:34N 41°18' W 071°30'8 7.9
2015-Mar-03 05:33N 41°17' W 071°41'8 7.9
2015-Mar-03 04:33N 41°16' W 071°51'8 8.5
2015-Mar-03 03:33N 41°14' W 072°02'7 7.2
2015-Mar-03 02:33N 41°14' W 072°12'7 6.7
2015-Mar-03 01:33N 41°12' W 072°20'6 5.7
2015-Mar-03 00:34N 41°10' W 072°27'6 5.8
2015-Mar-02 23:33N 41°10' W 072°35'50 2.4
2015-Mar-02 02:15N 40°55' W 073°39'8 7.3
2015-Mar-02 01:13N 40°50' W 073°46'5 5.5
2015-Mar-02 00:22N 40°48' W 073°52'5 5.4
2015-Mar-01 23:29N 40°46' W 073°57'5 5.3
2015-Mar-01 22:33N 40°41' W 074°00'3 2.8
2015-Mar-01 21:33N 40°39' W 074°03'0 0.1
2015-Mar-01 20:33N 40°39' W 074°03'0 0.1
2015-Mar-01 19:33N 40°39' W 074°03'0 0.0
2015-Mar-01 18:33N 40°39' W 074°03'6 5.5
2015-Mar-01 17:33N 40°39' W 074°10'6 5.5
2015-Mar-01 16:32N 40°34' W 074°13'2 1.1
2015-Mar-01 15:05N 40°33' W 074°15'0 0.0
2015-Mar-01 14:15N 40°33' W 074°15'0 0.0
2015-Mar-01 11:33N 40°33' W 074°15'0 0.1
2015-Mar-01 10:22N 40°33' W 074°15'0 0.0
2015-Mar-01 08:33N 40°33' W 074°15'0 0.0
2015-Mar-01 06:18N 40°33' W 074°15'5 1.8
2015-Mar-01 03:33N 40°37' W 074°12'4 4.1
2015-Mar-01 02:33N 40°39' W 074°07'0 0.0
2015-Mar-01 01:34N 40°39' W 074°07'0 0.0
2015-Mar-01 00:33N 40°39' W 074°07'0 0.0
2015-Feb-28 23:33N 40°39' W 074°07'0 0.0
2015-Feb-28 22:34N 40°39' W 074°07'0 0.0
2015-Feb-28 21:33N 40°39' W 074°07'0 0.0
2015-Feb-28 20:30N 40°39' W 074°07'0 0.0
2015-Feb-28 19:33N 40°39' W 074°07'0 0.0
2015-Feb-28 18:31N 40°39' W 074°07'0 0.0
2015-Feb-28 17:31N 40°39' W 074°07'0 0.1
2015-Feb-28 16:33N 40°39' W 074°07'7 6.7
2015-Feb-28 15:31N 40°33' W 074°13'1 1.4
2015-Feb-28 14:33N 40°33' W 074°15'4 4.0
2015-Feb-28 13:32N 40°36' W 074°12'6 6.0
2015-Feb-28 12:33N 40°39' W 074°05'8 7.5
2015-Feb-28 11:33N 40°44' W 073°58'6 5.7
2015-Feb-28 10:33N 40°48' W 073°52'37 7.0
2015-Feb-28 05:17N 41°02' W 073°07'6 8.0
2015-Feb-28 04:33N 41°03' W 072°59'6 5.9
2015-Feb-28 03:33N 41°02' W 073°07'8 7.3
2015-Feb-28 02:31N 41°01' W 073°17'14 6.7
2015-Feb-28 00:28N 41°03' W 072°59'9 9.6
2015-Feb-27 23:33N 41°05' W 072°47'10 9.5
2015-Feb-27 22:34N 41°08' W 072°36'1010.2
2015-Feb-27 21:33N 41°11' W 072°23'1010.3
2015-Feb-27 20:34N 41°14' W 072°10'10 9.6
2015-Feb-27 19:34N 41°14' W 071°57'9 9.4
2015-Feb-27 18:34N 41°16' W 071°44'9 9.3
2015-Feb-27 17:33N 41°18' W 071°32'9 9.3
2015-Feb-27 16:33N 41°18' W 071°20'10 9.7
2015-Feb-27 15:33N 41°22' W 071°08'10 9.9
2015-Feb-27 14:33N 41°28' W 070°57'11 8.9
2015-Feb-27 13:18N 41°34' W 070°45'6 7.9
2015-Feb-27 12:32N 41°40' W 070°41'19 2.1
2015-Feb-27 03:27N 41°55' W 070°26'5 4.0
2015-Feb-27 02:08N 42°01' W 070°25'30 2.6
2015-Feb-26 14:33N 42°24' W 070°51'50 1.3
2015-Feb-24 23:04N 41°33' W 070°45'3 4.6
2015-Feb-24 22:29N 41°32' W 070°48'10 5.4
2015-Feb-24 20:33N 41°27' W 071°00'7 6.6
2015-Feb-24 19:33N 41°23' W 071°08'7 7.0
2015-Feb-24 18:33N 41°23' W 071°17'4 4.1
2015-Feb-24 17:33N 41°21' W 071°22'5 5.0
2015-Feb-24 16:34N 41°16' W 071°22'4 3.5
2015-Feb-24 15:33N 41°18' W 071°26'5 4.7
2015-Feb-24 14:34N 41°18' W 071°32'5 4.9
2015-Feb-24 13:33N 41°16' W 071°39'30 5.7
2015-Feb-24 08:22N 41°12' W 072°18'5 5.6
2015-Feb-24 07:33N 41°10' W 072°23'5 4.6
2015-Feb-24 06:32N 41°08' W 072°29'9 4.6
2015-Feb-24 04:33N 41°06' W 072°41'5 4.8
2015-Feb-24 03:34N 41°05' W 072°47'5 5.1
2015-Feb-24 02:34N 41°04' W 072°54'5 5.5
2015-Feb-24 01:34N 41°02' W 073°01'6 6.3
2015-Feb-24 00:33N 41°01' W 073°09'7 7.4
2015-Feb-23 23:33N 41°01' W 073°19'8 7.6
2015-Feb-23 22:33N 40°59' W 073°28'7 7.3
2015-Feb-23 21:33N 40°56' W 073°37'5 3.6
2015-Feb-23 20:10N 40°54' W 073°43'10 5.7
2015-Feb-23 18:29N 40°48' W 073°53'7 7.2
2015-Feb-23 17:33N 40°43' W 073°58'7 7.3
2015-Feb-23 16:33N 40°39' W 074°07'0 0.2
2015-Feb-23 15:33N 40°39' W 074°07'0 0.3
2015-Feb-23 14:33N 40°39' W 074°07'0 0.0
2015-Feb-23 13:33N 40°39' W 074°07'0 0.0
2015-Feb-23 12:33N 40°39' W 074°07'2 1.8
2015-Feb-23 11:33N 40°39' W 074°05'1 1.4
2015-Feb-23 10:33N 40°38' W 074°04'1 1.2
2015-Feb-23 09:34N 40°39' W 074°05'1 1.4
2015-Feb-23 08:33N 40°39' W 074°07'0 0.0
2015-Feb-23 07:33N 40°39' W 074°07'0 0.0
2015-Feb-23 06:33N 40°39' W 074°07'0 0.0
2015-Feb-23 05:33N 40°39' W 074°07'0 0.0
2015-Feb-23 04:33N 40°39' W 074°07'0 0.0
2015-Feb-23 03:33N 40°39' W 074°07'0 0.0
2015-Feb-23 02:33N 40°39' W 074°07'0 0.0
2015-Feb-23 01:34N 40°39' W 074°07'0 0.0
2015-Feb-23 00:32N 40°39' W 074°07'0 0.0
2015-Feb-22 23:32N 40°39' W 074°07'0 0.0
2015-Feb-22 22:16N 40°39' W 074°07'0 0.0
2015-Feb-22 21:27N 40°39' W 074°07'0 0.5
2015-Feb-22 20:32N 40°39' W 074°07'0 0.0
2015-Feb-22 19:34N 40°39' W 074°07'0 0.0
2015-Feb-22 18:31N 40°39' W 074°07'0 0.1
2015-Feb-22 17:34N 40°39' W 074°07'  

Dump ship's entire track history